Time;durP1;ratioP1;P1;durP2;ratioP2;P2;SDS_P1;SDS_P2;PMS_P1;PMS_P2;Temp;Humidity;BMP_temperature;BMP_pressure;BME280_temperature;BME280_humidity;BME280_pressure;Samples;Min_cycle;Max_cycle;Signal;HPM_P1;HPM_P2
2023/10/03 00:00:31;;;;;;;0.10;0.10;;;;;;;;;;5111996;28;20050;-52
2023/10/03 00:02:57;;;;;;;0.10;0.10;;;;;;;;;;5112246;28;20056;-52
2023/10/03 00:05:28;;;;;;;0.10;0.10;;;;;;;;;;5112522;28;20084;-52
2023/10/03 00:07:54;;;;;;;0.10;0.10;;;;;;;;;;5111795;28;20052;-53
2023/10/03 00:10:20;;;;;;;0.32;0.32;;;;;;;;;;5112293;28;20412;-52
2023/10/03 00:12:48;;;;;;;0.10;0.10;;;;;;;;;;5112413;28;20483;-52
2023/10/03 00:15:16;;;;;;;0.10;0.10;;;;;;;;;;5112132;28;20063;-52
2023/10/03 00:17:41;;;;;;;0.10;0.10;;;;;;;;;;5112001;28;20051;-52
2023/10/03 00:20:08;;;;;;;0.10;0.10;;;;;;;;;;5112438;28;20043;-52
2023/10/03 00:22:34;;;;;;;0.10;0.10;;;;;;;;;;5112165;28;20487;-52
2023/10/03 00:25:01;;;;;;;0.10;0.10;;;;;;;;;;5112057;28;20047;-53
2023/10/03 00:27:28;;;;;;;0.10;0.10;;;;;;;;;;5111953;28;20179;-53
2023/10/03 00:29:55;;;;;;;0.10;0.10;;;;;;;;;;5112238;28;20055;-52
2023/10/03 00:32:20;;;;;;;0.10;0.10;;;;;;;;;;5117324;28;20144;-53
2023/10/03 00:34:46;;;;;;;0.10;0.10;;;;;;;;;;5128923;27;20314;-53
2023/10/03 00:37:12;;;;;;;0.10;0.10;;;;;;;;;;5152940;27;20043;-51
2023/10/03 00:39:37;;;;;;;0.10;0.10;;;;;;;;;;5115792;27;20044;-53
2023/10/03 00:42:05;;;;;;;0.10;0.10;;;;;;;;;;5117611;28;20130;-52
2023/10/03 00:44:31;;;;;;;0.10;0.10;;;;;;;;;;5131332;28;20406;-52
2023/10/03 00:46:56;;;;;;;0.20;0.20;;;;;;;;;;5131425;27;20058;-51
2023/10/03 00:49:22;;;;;;;0.10;0.10;;;;;;;;;;5131457;28;20499;-52
2023/10/03 00:51:49;;;;;;;0.10;0.10;;;;;;;;;;5132355;28;20403;-53
2023/10/03 00:54:14;;;;;;;0.20;0.20;;;;;;;;;;5132685;28;20070;-52
2023/10/03 00:56:43;;;;;;;0.10;0.10;;;;;;;;;;5132345;28;20047;-53
2023/10/03 00:59:09;;;;;;;0.20;0.20;;;;;;;;;;5132143;28;20047;-52
2023/10/03 01:01:36;;;;;;;0.10;0.10;;;;;;;;;;5132407;28;20494;-51
2023/10/03 01:04:16;;;;;;;0.10;0.10;;;;;;;;;;5132066;27;20074;-53
2023/10/03 01:06:42;;;;;;;0.20;0.20;;;;;;;;;;5132389;28;20047;-52
2023/10/03 01:09:15;;;;;;;0.20;0.20;;;;;;;;;;5131477;28;20058;-52
2023/10/03 01:11:40;;;;;;;0.10;0.10;;;;;;;;;;5132157;28;20043;-53
2023/10/03 01:14:06;;;;;;;0.10;0.10;;;;;;;;;;5131865;28;20083;-53
2023/10/03 01:16:33;;;;;;;0.10;0.10;;;;;;;;;;5131693;28;20048;-53
2023/10/03 01:19:07;;;;;;;0.10;0.10;;;;;;;;;;5130526;28;20153;-53
2023/10/03 01:21:34;;;;;;;0.35;0.30;;;;;;;;;;5130860;28;20055;-52
2023/10/03 01:24:00;;;;;;;0.10;0.10;;;;;;;;;;5130593;28;20051;-52
2023/10/03 01:26:26;;;;;;;0.20;0.20;;;;;;;;;;5131430;28;20104;-51
2023/10/03 01:28:51;;;;;;;0.10;0.10;;;;;;;;;;5130817;27;20423;-52
2023/10/03 01:31:17;;;;;;;0.10;0.10;;;;;;;;;;5131034;27;20050;-52
2023/10/03 01:33:43;;;;;;;0.10;0.10;;;;;;;;;;5131072;27;20058;-52
2023/10/03 01:36:09;;;;;;;0.10;0.10;;;;;;;;;;5131936;27;20043;-52
2023/10/03 01:38:34;;;;;;;0.10;0.10;;;;;;;;;;5131766;27;20457;-52
2023/10/03 01:41:00;;;;;;;0.10;0.10;;;;;;;;;;5132329;27;20492;-53
2023/10/03 01:43:26;;;;;;;0.10;0.10;;;;;;;;;;5130836;28;20043;-52
2023/10/03 01:45:53;;;;;;;0.10;0.10;;;;;;;;;;5130790;27;20073;-53
2023/10/03 01:48:19;;;;;;;0.10;0.10;;;;;;;;;;5123245;28;20055;-52
2023/10/03 01:50:44;;;;;;;0.10;0.10;;;;;;;;;;5109826;28;20101;-53
2023/10/03 01:53:11;;;;;;;0.10;0.10;;;;;;;;;;5110633;28;20048;-51
2023/10/03 01:55:37;;;;;;;0.10;0.10;;;;;;;;;;5110657;28;20048;-52
2023/10/03 01:58:04;;;;;;;0.10;0.10;;;;;;;;;;5110110;28;20071;-52
2023/10/03 02:00:30;;;;;;;0.10;0.10;;;;;;;;;;5110527;28;20044;-52
2023/10/03 02:03:00;;;;;;;0.10;0.10;;;;;;;;;;5110456;28;20532;-52
2023/10/03 02:05:27;;;;;;;0.10;0.10;;;;;;;;;;5110776;28;20142;-52
2023/10/03 02:08:04;;;;;;;0.10;0.10;;;;;;;;;;5110480;28;20055;-52
2023/10/03 02:10:29;;;;;;;0.10;0.10;;;;;;;;;;5110672;28;20058;-53
2023/10/03 02:12:56;;;;;;;0.10;0.10;;;;;;;;;;5110501;28;20052;-52
2023/10/03 02:15:23;;;;;;;0.10;0.10;;;;;;;;;;5110563;28;20051;-52
2023/10/03 02:17:53;;;;;;;0.10;0.10;;;;;;;;;;5110330;28;20048;-53
2023/10/03 02:20:20;;;;;;;0.10;0.10;;;;;;;;;;5110200;28;20048;-52
2023/10/03 02:22:53;;;;;;;0.30;0.30;;;;;;;;;;5109983;28;20102;-53
2023/10/03 02:25:21;;;;;;;0.10;0.10;;;;;;;;;;5110096;28;20043;-52
2023/10/03 02:27:47;;;;;;;6.85;0.30;;;;;;;;;;5109999;28;20097;-51
2023/10/03 02:30:12;;;;;;;0.10;0.10;;;;;;;;;;5110460;28;20059;-52
2023/10/03 02:32:39;;;;;;;0.10;0.10;;;;;;;;;;5110726;28;20513;-51
2023/10/03 02:35:06;;;;;;;0.10;0.10;;;;;;;;;;5109987;27;20048;-54
2023/10/03 02:37:33;;;;;;;0.10;0.10;;;;;;;;;;5128423;28;20058;-51
2023/10/03 02:40:00;;;;;;;0.10;0.10;;;;;;;;;;5130740;28;20082;-53
2023/10/03 02:42:26;;;;;;;0.10;0.10;;;;;;;;;;5129830;28;20184;-52
2023/10/03 02:44:51;;;;;;;0.10;0.10;;;;;;;;;;5130408;28;20452;-53
2023/10/03 02:47:17;;;;;;;0.10;0.10;;;;;;;;;;5129399;28;20079;-52
2023/10/03 02:49:42;;;;;;;0.10;0.10;;;;;;;;;;5110271;28;20063;-52
2023/10/03 02:52:09;;;;;;;0.10;0.10;;;;;;;;;;5109905;28;20055;-52
2023/10/03 02:54:35;;;;;;;0.10;0.10;;;;;;;;;;5109872;28;20063;-52
2023/10/03 02:57:01;;;;;;;0.10;0.10;;;;;;;;;;5109476;28;20048;-52
2023/10/03 02:59:26;;;;;;;0.22;0.22;;;;;;;;;;5109498;28;20047;-53
2023/10/03 03:01:56;;;;;;;0.10;0.10;;;;;;;;;;5109737;28;20051;-52
2023/10/03 03:04:23;;;;;;;0.10;0.10;;;;;;;;;;5109234;28;20051;-53
2023/10/03 03:06:51;;;;;;;0.10;0.10;;;;;;;;;;5109912;28;20051;-52
2023/10/03 03:09:23;;;;;;;0.25;0.20;;;;;;;;;;5108806;28;20048;-53
2023/10/03 03:11:49;;;;;;;0.10;0.10;;;;;;;;;;5111161;28;20055;-53
2023/10/03 03:14:15;;;;;;;0.10;0.10;;;;;;;;;;5113191;28;20046;-53
2023/10/03 03:16:40;;;;;;;0.10;0.10;;;;;;;;;;5112938;28;20048;-53
2023/10/03 03:19:06;;;;;;;0.10;0.10;;;;;;;;;;5112720;28;20071;-53
2023/10/03 03:21:33;;;;;;;0.10;0.10;;;;;;;;;;5112759;28;20051;-52
2023/10/03 03:24:08;;;;;;;0.10;0.10;;;;;;;;;;5112742;28;20108;-51
2023/10/03 03:26:36;;;;;;;0.10;0.10;;;;;;;;;;5113081;28;20063;-53
2023/10/03 03:29:06;;;;;;;0.15;0.15;;;;;;;;;;5112295;28;20055;-52
2023/10/03 03:31:32;;;;;;;0.10;0.10;;;;;;;;;;5112947;28;20419;-51
2023/10/03 03:34:00;;;;;;;0.10;0.10;;;;;;;;;;5112573;27;20036;-50
2023/10/03 03:36:29;;;;;;;0.10;0.10;;;;;;;;;;5113380;28;20513;-50
2023/10/03 03:38:56;;;;;;;0.20;0.20;;;;;;;;;;5128060;28;20043;-51
2023/10/03 03:41:22;;;;;;;0.10;0.10;;;;;;;;;;5133188;27;20054;-52
2023/10/03 03:43:48;;;;;;;0.10;0.10;;;;;;;;;;5132939;27;20047;-53
2023/10/03 03:46:14;;;;;;;0.10;0.10;;;;;;;;;;5132078;28;20464;-53
2023/10/03 03:48:40;;;;;;;0.10;0.10;;;;;;;;;;5131292;27;20559;-51
2023/10/03 03:51:06;;;;;;;0.10;0.10;;;;;;;;;;5133389;27;20058;-53
2023/10/03 03:53:33;;;;;;;0.20;0.20;;;;;;;;;;5133494;27;20099;-53
2023/10/03 03:56:07;;;;;;;0.10;0.10;;;;;;;;;;5133451;27;20047;-52
2023/10/03 03:58:35;;;;;;;0.10;0.10;;;;;;;;;;5123567;27;20484;-52
2023/10/03 04:01:00;;;;;;;0.10;0.10;;;;;;;;;;5112942;28;20480;-53
2023/10/03 04:03:29;;;;;;;0.10;0.10;;;;;;;;;;5112250;28;20062;-52
2023/10/03 04:05:57;;;;;;;0.20;0.20;;;;;;;;;;5111969;28;20040;-53
2023/10/03 04:08:23;;;;;;;0.20;0.20;;;;;;;;;;5111943;28;20051;-51
2023/10/03 04:10:49;;;;;;;0.17;0.17;;;;;;;;;;5111903;28;20048;-52
2023/10/03 04:13:16;;;;;;;0.10;0.10;;;;;;;;;;5111477;28;20039;-51
2023/10/03 04:15:44;;;;;;;0.20;0.20;;;;;;;;;;5111602;28;20101;-53
2023/10/03 04:18:10;;;;;;;0.10;0.10;;;;;;;;;;5111340;28;20090;-53
2023/10/03 04:20:39;;;;;;;0.10;0.10;;;;;;;;;;5112291;28;20047;-52
2023/10/03 04:23:07;;;;;;;0.20;0.20;;;;;;;;;;5110849;28;20058;-50
2023/10/03 04:25:33;;;;;;;0.10;0.10;;;;;;;;;;5111900;28;20074;-51
2023/10/03 04:28:00;;;;;;;0.10;0.10;;;;;;;;;;5111704;28;20082;-52
2023/10/03 04:30:26;;;;;;;0.10;0.10;;;;;;;;;;5111528;28;20043;-52
2023/10/03 04:32:54;;;;;;;0.20;0.20;;;;;;;;;;5111401;28;20043;-51
2023/10/03 04:35:23;;;;;;;0.10;0.10;;;;;;;;;;5070885;28;1162438;-53
2023/10/03 04:37:51;;;;;;;0.10;0.10;;;;;;;;;;5111840;28;20484;-53
2023/10/03 04:40:22;;;;;;;0.10;0.10;;;;;;;;;;5114343;27;20051;-52
2023/10/03 04:42:49;;;;;;;0.10;0.10;;;;;;;;;;5111602;28;20051;-51
2023/10/03 04:45:18;;;;;;;0.10;0.10;;;;;;;;;;5112456;28;20290;-53
2023/10/03 04:47:45;;;;;;;0.10;0.10;;;;;;;;;;5114783;27;20085;-53
2023/10/03 04:50:11;;;;;;;0.10;0.10;;;;;;;;;;5123962;27;20047;-53
2023/10/03 04:52:38;;;;;;;0.20;0.20;;;;;;;;;;5113400;28;20596;-52
2023/10/03 04:55:05;;;;;;;0.20;0.20;;;;;;;;;;5113470;28;20108;-52
2023/10/03 04:57:31;;;;;;;0.10;0.10;;;;;;;;;;5113125;27;20378;-52
2023/10/03 04:59:59;;;;;;;0.10;0.10;;;;;;;;;;5112900;28;20484;-52
2023/10/03 05:02:25;;;;;;;0.10;0.10;;;;;;;;;;5113015;28;20050;-53
2023/10/03 05:04:52;;;;;;;0.10;0.10;;;;;;;;;;5113006;28;20043;-53
2023/10/03 05:07:18;;;;;;;0.10;0.10;;;;;;;;;;5112974;28;20051;-53
2023/10/03 05:09:44;;;;;;;0.20;0.20;;;;;;;;;;5112903;28;20052;-53
2023/10/03 05:12:10;;;;;;;0.10;0.10;;;;;;;;;;5112284;28;20079;-50
2023/10/03 05:14:40;;;;;;;0.10;0.10;;;;;;;;;;5113009;28;20051;-52
2023/10/03 05:17:07;;;;;;;0.10;0.10;;;;;;;;;;5112441;28;20052;-53
2023/10/03 05:19:33;;;;;;;0.10;0.10;;;;;;;;;;5112245;28;20068;-52
2023/10/03 05:21:59;;;;;;;0.10;0.10;;;;;;;;;;5112669;28;20047;-53
2023/10/03 05:24:26;;;;;;;0.10;0.10;;;;;;;;;;5112385;28;20450;-52
2023/10/03 05:26:52;;;;;;;0.22;0.22;;;;;;;;;;5112725;28;20077;-53
2023/10/03 05:29:18;;;;;;;0.10;0.10;;;;;;;;;;5111590;28;20104;-52
2023/10/03 05:31:44;;;;;;;0.10;0.10;;;;;;;;;;5114388;27;20047;-53
2023/10/03 05:34:11;;;;;;;0.20;0.20;;;;;;;;;;5131143;27;20046;-52
2023/10/03 05:36:38;;;;;;;0.10;0.10;;;;;;;;;;5132047;27;20104;-52
2023/10/03 05:39:06;;;;;;;0.10;0.10;;;;;;;;;;5117852;27;20100;-51
2023/10/03 05:41:32;;;;;;;0.17;0.17;;;;;;;;;;5116580;27;20134;-53
2023/10/03 05:43:59;;;;;;;0.10;0.10;;;;;;;;;;5131113;27;20487;-53
2023/10/03 05:46:25;;;;;;;0.20;0.20;;;;;;;;;;5131842;27;20486;-53
2023/10/03 05:48:51;;;;;;;0.10;0.10;;;;;;;;;;5119322;27;20085;-53
2023/10/03 05:51:20;;;;;;;0.20;0.20;;;;;;;;;;5117687;27;20582;-52
2023/10/03 05:53:46;;;;;;;0.10;0.10;;;;;;;;;;5112748;27;20048;-53
2023/10/03 05:56:13;;;;;;;0.10;0.10;;;;;;;;;;5111625;28;20051;-53
2023/10/03 05:58:39;;;;;;;0.10;0.10;;;;;;;;;;5120879;27;20451;-50
2023/10/03 06:01:06;;;;;;;0.10;0.10;;;;;;;;;;5132149;27;20479;-52
2023/10/03 06:03:32;;;;;;;0.10;0.10;;;;;;;;;;5131080;27;20447;-53
2023/10/03 06:05:59;;;;;;;0.20;0.20;;;;;;;;;;5131786;27;20048;-53
2023/10/03 06:08:25;;;;;;;0.10;0.10;;;;;;;;;;5131835;27;20059;-53
2023/10/03 06:10:51;;;;;;;0.10;0.10;;;;;;;;;;5131428;27;20051;-52
2023/10/03 06:13:18;;;;;;;0.10;0.10;;;;;;;;;;5131308;27;20055;-53
2023/10/03 06:15:44;;;;;;;0.10;0.10;;;;;;;;;;5131811;27;20043;-53
2023/10/03 06:18:10;;;;;;;0.90;0.40;;;;;;;;;;5131020;27;20047;-52
2023/10/03 06:20:37;;;;;;;0.10;0.10;;;;;;;;;;5131650;27;20043;-53
2023/10/03 06:23:04;;;;;;;0.30;0.30;;;;;;;;;;5131299;27;20119;-52
2023/10/03 06:25:31;;;;;;;0.10;0.10;;;;;;;;;;5131634;27;20040;-53
2023/10/03 06:27:57;;;;;;;0.10;0.10;;;;;;;;;;5131777;27;20051;-53
2023/10/03 06:30:23;;;;;;;0.10;0.10;;;;;;;;;;5131646;27;20043;-52
2023/10/03 06:32:49;;;;;;;0.20;0.20;;;;;;;;;;5131609;28;20086;-52
2023/10/03 06:35:18;;;;;;;0.10;0.10;;;;;;;;;;5131043;28;20043;-51
2023/10/03 06:37:44;;;;;;;;;;;;;;;;;;5129385;28;20051;-51
2023/10/03 06:40:13;;;;;;;0.10;0.10;;;;;;;;;;5110486;28;20064;-51
2023/10/03 06:42:40;;;;;;;0.10;0.10;;;;;;;;;;5110118;28;20040;-52
2023/10/03 06:45:13;;;;;;;0.10;0.10;;;;;;;;;;5125396;27;20051;-52
2023/10/03 06:47:40;;;;;;;0.10;0.10;;;;;;;;;;5133148;27;20047;-53
2023/10/03 06:50:07;;;;;;;0.10;0.10;;;;;;;;;;5114401;28;20068;-53
2023/10/03 06:52:34;;;;;;;0.10;0.10;;;;;;;;;;5116550;27;20051;-52
2023/10/03 06:55:03;;;;;;;0.10;0.10;;;;;;;;;;5129860;27;20054;-50
2023/10/03 06:57:29;;;;;;;0.10;0.10;;;;;;;;;;5134548;27;20051;-52
2023/10/03 06:59:56;;;;;;;0.10;0.10;;;;;;;;;;5114417;28;20051;-52
2023/10/03 07:02:22;;;;;;;0.10;0.10;;;;;;;;;;5114799;28;20539;-52
2023/10/03 07:04:48;;;;;;;0.10;0.10;;;;;;;;;;5114589;28;20077;-53
2023/10/03 07:07:15;;;;;;;0.10;0.10;;;;;;;;;;5114959;28;20092;-52
2023/10/03 07:09:41;;;;;;;0.28;0.28;;;;;;;;;;5114431;28;20105;-52
2023/10/03 07:12:08;;;;;;;0.10;0.10;;;;;;;;;;5114735;28;20055;-51
2023/10/03 07:14:35;;;;;;;0.10;0.10;;;;;;;;;;5114557;28;20055;-50
2023/10/03 07:17:03;;;;;;;0.10;0.10;;;;;;;;;;5114501;28;20146;-53
2023/10/03 07:19:30;;;;;;;0.10;0.10;;;;;;;;;;5131225;27;20046;-52
2023/10/03 07:21:57;;;;;;;0.10;0.10;;;;;;;;;;5134880;27;20051;-52
2023/10/03 07:24:28;;;;;;;0.10;0.10;;;;;;;;;;5134928;27;20066;-53
2023/10/03 07:26:54;;;;;;;0.10;0.10;;;;;;;;;;5135269;27;20047;-53
2023/10/03 07:29:21;;;;;;;0.10;0.10;;;;;;;;;;5134752;27;20043;-52
2023/10/03 07:31:48;;;;;;;0.10;0.10;;;;;;;;;;5134812;27;20095;-53
2023/10/03 07:34:17;;;;;;;0.10;0.10;;;;;;;;;;5135102;27;20054;-52
2023/10/03 07:36:45;;;;;;;0.10;0.10;;;;;;;;;;5135319;27;20051;-53
2023/10/03 07:39:13;;;;;;;0.17;0.17;;;;;;;;;;5130620;27;20100;-52
2023/10/03 07:41:39;;;;;;;0.10;0.10;;;;;;;;;;5134455;27;20372;-53
2023/10/03 07:44:05;;;;;;;0.10;0.10;;;;;;;;;;5134054;27;20141;-53
2023/10/03 07:46:32;;;;;;;0.10;0.10;;;;;;;;;;5118147;27;20548;-53
2023/10/03 07:48:59;;;;;;;0.10;0.10;;;;;;;;;;5113769;28;20075;-52
2023/10/03 07:51:26;;;;;;;0.10;0.10;;;;;;;;;;5114216;28;20047;-53
2023/10/03 07:53:55;;;;;;;0.20;0.20;;;;;;;;;;5114042;27;20047;-52
2023/10/03 07:56:25;;;;;;;0.17;0.17;;;;;;;;;;5126808;27;20070;-52
2023/10/03 07:58:54;;;;;;;0.10;0.10;;;;;;;;;;5121972;27;20052;-51
2023/10/03 08:01:22;;;;;;;0.10;0.10;;;;;;;;;;5113491;28;20044;-52
2023/10/03 08:03:49;;;;;;;0.73;0.32;;;;;;;;;;5113656;28;20054;-53
2023/10/03 08:06:19;;;;;;;0.10;0.10;;;;;;;;;;5114355;28;20047;-53
2023/10/03 08:08:45;;;;;;;;;;;;;;;;;;5114076;28;20051;-53
2023/10/03 08:11:13;;;;;;;0.10;0.10;;;;;;;;;;5113441;28;19927;-53
2023/10/03 08:13:40;;;;;;;0.20;0.20;;;;;;;;;;5113605;28;20128;-52
2023/10/03 08:16:07;;;;;;;0.30;0.30;;;;;;;;;;5113844;28;20048;-52
2023/10/03 08:18:36;;;;;;;0.10;0.10;;;;;;;;;;5113094;28;20051;-51
2023/10/03 08:21:03;;;;;;;0.10;0.10;;;;;;;;;;5112906;28;20147;-52
2023/10/03 08:23:32;;;;;;;0.10;0.10;;;;;;;;;;5112797;28;20490;-53
2023/10/03 08:26:01;;;;;;;0.10;0.10;;;;;;;;;;5112564;28;20055;-53
2023/10/03 08:28:28;;;;;;;0.10;0.10;;;;;;;;;;5112012;28;20142;-51
2023/10/03 08:30:55;;;;;;;0.10;0.10;;;;;;;;;;5116738;27;20042;-52
2023/10/03 08:33:22;;;;;;;0.10;0.10;;;;;;;;;;5133107;27;20054;-53
2023/10/03 08:35:49;;;;;;;0.10;0.10;;;;;;;;;;5133796;27;20047;-52
2023/10/03 08:38:15;;;;;;;0.10;0.10;;;;;;;;;;5125968;27;20047;-53
2023/10/03 08:40:42;;;;;;;0.10;0.10;;;;;;;;;;5112697;28;20130;-52
2023/10/03 08:43:09;;;;;;;0.17;0.17;;;;;;;;;;5112256;28;20051;-51
2023/10/03 08:45:39;;;;;;;0.10;0.10;;;;;;;;;;5112568;28;20054;-52
2023/10/03 08:48:06;;;;;;;0.10;0.10;;;;;;;;;;5119243;27;20066;-52
2023/10/03 08:50:41;;;;;;;0.20;0.20;;;;;;;;;;5133549;27;20377;-53
2023/10/03 08:53:40;;;;;;;0.10;0.10;;;;;;;;;;5133547;27;20492;-53
2023/10/03 08:55:57;;;;;;;0.10;0.10;;;;;;;;;;5115105;27;20563;-51
2023/10/03 08:58:26;;;;;;;0.10;0.10;;;;;;;;;;5123693;27;20062;-52
2023/10/03 09:00:58;;;;;;;;;;;;;;;;;;5132754;27;20575;-53
2023/10/03 09:03:26;;;;;;;0.10;0.10;;;;;;;;;;5132751;27;20542;-52
2023/10/03 09:05:52;;;;;;;0.10;0.10;;;;;;;;;;5133096;27;20047;-52
2023/10/03 09:08:18;;;;;;;0.20;0.20;;;;;;;;;;5132056;27;20489;-52
2023/10/03 09:10:52;;;;;;;0.10;0.10;;;;;;;;;;5132412;27;20540;-53
2023/10/03 09:13:23;;;;;;;0.10;0.10;;;;;;;;;;5132246;27;20058;-52
2023/10/03 09:15:50;;;;;;;0.10;0.10;;;;;;;;;;5132360;27;20043;-52
2023/10/03 09:18:21;;;;;;;0.10;0.10;;;;;;;;;;5132084;27;20058;-51
2023/10/03 09:20:49;;;;;;;0.10;0.10;;;;;;;;;;5131921;27;20059;-52
2023/10/03 09:23:17;;;;;;;0.10;0.10;;;;;;;;;;5131818;27;20050;-52
2023/10/03 09:25:52;;;;;;;0.10;0.10;;;;;;;;;;5132393;27;20126;-50
2023/10/03 09:28:19;;;;;;;0.20;0.20;;;;;;;;;;5132199;27;20522;-51
2023/10/03 09:30:50;;;;;;;0.10;0.10;;;;;;;;;;5123084;27;20512;-53
2023/10/03 09:33:18;;;;;;;0.10;0.10;;;;;;;;;;5131685;27;20484;-51
2023/10/03 09:35:55;;;;;;;0.10;0.10;;;;;;;;;;5132563;27;20065;-51
2023/10/03 09:38:32;;;;;;;0.10;0.10;;;;;;;;;;5111963;28;20138;-51
2023/10/03 09:40:59;;;;;;;0.10;0.10;;;;;;;;;;5110686;28;20053;-53
2023/10/03 09:43:29;;;;;;;0.10;0.10;;;;;;;;;;5110354;28;20051;-52
2023/10/03 09:45:56;;;;;;;0.10;0.10;;;;;;;;;;5111259;28;20509;-53
2023/10/03 09:48:24;;;;;;;0.10;0.10;;;;;;;;;;5117275;27;20142;-51
2023/10/03 09:50:53;;;;;;;0.15;0.15;;;;;;;;;;5132101;27;20070;-52
2023/10/03 09:53:27;;;;;;;0.10;0.10;;;;;;;;;;5131652;27;20482;-52
2023/10/03 09:55:54;;;;;;;0.10;0.10;;;;;;;;;;5132230;27;20556;-51
2023/10/03 09:58:24;;;;;;;0.10;0.10;;;;;;;;;;5121667;27;20052;-52
2023/10/03 10:00:52;;;;;;;0.10;0.10;;;;;;;;;;5116567;27;20047;-52
2023/10/03 10:03:26;;;;;;;0.10;0.10;;;;;;;;;;5111465;28;20048;-52
2023/10/03 10:06:00;;;;;;;0.10;0.10;;;;;;;;;;5111010;28;20104;-51
2023/10/03 10:08:32;;;;;;;0.10;0.10;;;;;;;;;;5111711;28;20051;-52
2023/10/03 10:11:07;;;;;;;0.10;0.10;;;;;;;;;;5111387;28;20100;-53
2023/10/03 10:13:36;;;;;;;0.20;0.20;;;;;;;;;;5111257;28;20043;-52
2023/10/03 10:16:20;;;;;;;0.10;0.10;;;;;;;;;;5110918;28;20055;-52
2023/10/03 10:21:24;;;;;;;0.10;0.10;;;;;;;;;;5187557;27;20494;-52
2023/10/03 10:24:10;;;;;;;0.10;0.10;;;;;;;;;;5166984;27;20465;-51
2023/10/03 10:26:36;;;;;;;0.10;0.10;;;;;;;;;;5167774;27;20502;-51
2023/10/03 10:29:05;;;;;;;0.10;0.10;;;;;;;;;;5182315;27;20041;-51
2023/10/03 10:31:34;;;;;;;0.40;0.40;;;;;;;;;;5153650;27;20053;-52
2023/10/03 10:34:20;;;;;;;0.10;0.10;;;;;;;;;;5148338;27;20050;-53
2023/10/03 10:36:53;;;;;;;0.10;0.10;;;;;;;;;;5147182;27;20046;-52
2023/10/03 10:39:23;;;;;;;0.10;0.10;;;;;;;;;;5180243;27;20042;-51
2023/10/03 10:42:09;;;;;;;0.10;0.10;;;;;;;;;;5183261;27;20410;-51
2023/10/03 10:44:35;;;;;;;0.10;0.10;;;;;;;;;;5152608;27;20418;-52
2023/10/03 10:47:05;;;;;;;0.10;0.10;;;;;;;;;;5168186;27;20122;-52
2023/10/03 10:52:06;;;;;;;0.10;0.10;;;;;;;;;;5189620;27;20148;-52
2023/10/03 10:54:35;;;;;;;0.20;0.20;;;;;;;;;;5169435;27;20052;-51
2023/10/03 10:57:03;;;;;;;0.10;0.10;;;;;;;;;;5168917;27;20723;-51
2023/10/03 10:59:29;;;;;;;0.10;0.10;;;;;;;;;;5154253;27;20053;-52
2023/10/03 11:01:56;;;;;;;0.30;0.30;;;;;;;;;;5167534;27;20046;-50
2023/10/03 11:04:23;;;;;;;0.10;0.10;;;;;;;;;;5167425;27;20088;-52
2023/10/03 11:06:50;;;;;;;0.10;0.10;;;;;;;;;;5169030;27;20497;-51
2023/10/03 11:09:20;;;;;;;0.10;0.10;;;;;;;;;;5168564;27;20046;-51
2023/10/03 11:11:45;;;;;;;;;;;;;;;;;;5168054;27;20050;-52
2023/10/03 11:14:11;;;;;;;0.10;0.10;;;;;;;;;;5168349;27;20009;-52
2023/10/03 11:16:37;;;;;;;0.10;0.10;;;;;;;;;;5168848;27;20117;-51
2023/10/03 11:19:04;;;;;;;0.10;0.10;;;;;;;;;;5168376;27;20043;-52
2023/10/03 11:21:30;;;;;;;0.10;0.10;;;;;;;;;;5167905;27;20049;-51
2023/10/03 11:24:16;;;;;;;0.20;0.20;;;;;;;;;;5167784;27;20528;-51
2023/10/03 11:26:42;;;;;;;0.10;0.10;;;;;;;;;;5167605;27;20506;-51
2023/10/03 11:29:08;;;;;;;0.10;0.10;;;;;;;;;;5162117;27;20212;-50
2023/10/03 11:31:42;;;;;;;0.15;0.15;;;;;;;;;;5166480;27;20289;-52
2023/10/03 11:34:08;;;;;;;0.10;0.10;;;;;;;;;;5168732;27;20542;-52
2023/10/03 11:36:42;;;;;;;0.10;0.10;;;;;;;;;;5169136;27;20047;-50
2023/10/03 11:39:08;;;;;;;0.10;0.10;;;;;;;;;;5168979;27;20043;-52
2023/10/03 11:41:33;;;;;;;0.10;0.10;;;;;;;;;;5165355;27;20410;-49
2023/10/03 11:44:00;;;;;;;0.10;0.10;;;;;;;;;;5147465;27;20047;-50
2023/10/03 11:46:26;;;;;;;0.10;0.10;;;;;;;;;;5147358;27;20114;-50
2023/10/03 11:48:55;;;;;;;0.10;0.10;;;;;;;;;;5147247;27;20051;-50
2023/10/03 11:51:21;;;;;;;0.10;0.10;;;;;;;;;;5147944;27;20414;-50
2023/10/03 11:53:47;;;;;;;0.10;0.10;;;;;;;;;;5147640;27;20077;-51
2023/10/03 11:56:12;;;;;;;0.10;0.10;;;;;;;;;;5147402;27;20047;-49
2023/10/03 11:58:38;;;;;;;0.22;0.20;;;;;;;;;;5147117;27;20061;-51
2023/10/03 12:01:03;;;;;;;0.10;0.10;;;;;;;;;;5147123;27;20047;-50
2023/10/03 12:03:30;;;;;;;0.10;0.10;;;;;;;;;;5133243;27;20055;-50
2023/10/03 12:05:57;;;;;;;0.60;0.38;;;;;;;;;;5133098;27;20051;-50
2023/10/03 12:08:23;;;;;;;0.10;0.10;;;;;;;;;;5133259;28;20043;-50
2023/10/03 12:10:49;;;;;;;0.10;0.10;;;;;;;;;;5133578;28;20054;-51
2023/10/03 12:13:15;;;;;;;0.20;0.20;;;;;;;;;;5129013;28;20083;-51
2023/10/03 12:15:42;;;;;;;0.10;0.10;;;;;;;;;;5133156;27;20052;-51
2023/10/03 12:18:08;;;;;;;0.10;0.10;;;;;;;;;;5132577;27;20492;-51
2023/10/03 12:20:36;;;;;;;0.10;0.10;;;;;;;;;;5133583;27;20046;-51
2023/10/03 12:23:04;;;;;;;0.10;0.10;;;;;;;;;;5132519;27;20058;-51
2023/10/03 12:25:30;;;;;;;0.10;0.10;;;;;;;;;;5131839;27;20437;-51
2023/10/03 12:27:55;;;;;;;0.10;0.10;;;;;;;;;;5132483;27;20055;-51
2023/10/03 12:30:22;;;;;;;0.10;0.10;;;;;;;;;;5131576;27;20481;-50
2023/10/03 12:32:48;;;;;;;0.10;0.10;;;;;;;;;;5153757;27;20384;-51
2023/10/03 12:35:15;;;;;;;0.20;0.20;;;;;;;;;;5154099;27;20073;-52
2023/10/03 12:37:44;;;;;;;0.10;0.10;;;;;;;;;;5152053;27;20058;-51
2023/10/03 12:40:13;;;;;;;0.10;0.10;;;;;;;;;;5133801;27;20051;-51
2023/10/03 12:42:40;;;;;;;0.10;0.10;;;;;;;;;;5132417;27;20044;-51
2023/10/03 12:45:07;;;;;;;0.10;0.10;;;;;;;;;;5132468;27;20426;-50
2023/10/03 12:47:35;;;;;;;0.10;0.10;;;;;;;;;;5132268;27;20129;-51
2023/10/03 12:50:01;;;;;;;0.10;0.10;;;;;;;;;;5132652;27;20410;-52
2023/10/03 12:52:28;;;;;;;0.10;0.10;;;;;;;;;;5133007;27;20051;-52
2023/10/03 12:54:55;;;;;;;0.10;0.10;;;;;;;;;;5132863;27;20403;-51
2023/10/03 12:57:21;;;;;;;0.10;0.10;;;;;;;;;;5133019;27;20047;-50
2023/10/03 12:59:49;;;;;;;0.10;0.10;;;;;;;;;;5132949;27;20043;-51
2023/10/03 13:02:17;;;;;;;0.10;0.10;;;;;;;;;;5133084;27;20051;-50
2023/10/03 13:04:42;;;;;;;0.10;0.10;;;;;;;;;;5132537;27;20046;-51
2023/10/03 13:07:09;;;;;;;0.10;0.10;;;;;;;;;;5133000;27;20106;-49
2023/10/03 13:09:35;;;;;;;0.10;0.10;;;;;;;;;;5132401;27;20058;-49
2023/10/03 13:12:03;;;;;;;0.10;0.10;;;;;;;;;;5132502;27;20043;-50
2023/10/03 13:14:29;;;;;;;;;;;;;;;;;;5131681;27;20049;-51
2023/10/03 13:16:59;;;;;;;0.10;0.10;;;;;;;;;;5132144;28;20009;-49
2023/10/03 13:19:25;;;;;;;0.10;0.10;;;;;;;;;;5132046;28;20047;-50
2023/10/03 13:21:52;;;;;;;0.10;0.10;;;;;;;;;;5132129;27;20093;-50
2023/10/03 13:24:20;;;;;;;0.10;0.10;;;;;;;;;;5131548;28;20047;-49
2023/10/03 13:26:46;;;;;;;0.10;0.10;;;;;;;;;;5130853;27;20047;-48
2023/10/03 13:29:11;;;;;;;0.10;0.10;;;;;;;;;;5131081;27;20419;-50
2023/10/03 13:31:37;;;;;;;0.15;0.15;;;;;;;;;;5150493;27;20477;-47
2023/10/03 13:34:03;;;;;;;0.10;0.10;;;;;;;;;;5152863;27;20050;-49
2023/10/03 13:36:30;;;;;;;0.15;0.15;;;;;;;;;;5152986;27;20437;-48
2023/10/03 13:38:56;;;;;;;0.10;0.10;;;;;;;;;;5121452;28;20043;-50
2023/10/03 13:41:21;;;;;;;0.10;0.10;;;;;;;;;;5131545;28;20043;-50
2023/10/03 13:43:47;;;;;;;0.10;0.10;;;;;;;;;;5131103;28;20480;-50
2023/10/03 13:46:12;;;;;;;0.10;0.10;;;;;;;;;;5131992;28;20067;-50
2023/10/03 13:48:39;;;;;;;0.10;0.10;;;;;;;;;;5131374;28;20051;-51
2023/10/03 13:51:05;;;;;;;0.10;0.10;;;;;;;;;;5131975;27;20471;-50
2023/10/03 13:53:31;;;;;;;0.10;0.10;;;;;;;;;;5131854;28;20054;-51
2023/10/03 13:55:58;;;;;;;0.10;0.10;;;;;;;;;;5131866;27;20062;-51
2023/10/03 13:58:24;;;;;;;0.10;0.10;;;;;;;;;;5130680;27;20213;-49
2023/10/03 14:00:50;;;;;;;0.20;0.20;;;;;;;;;;5131230;28;20125;-51
2023/10/03 14:03:19;;;;;;;0.10;0.10;;;;;;;;;;5130999;28;20074;-51
2023/10/03 14:05:45;;;;;;;0.10;0.10;;;;;;;;;;5131225;27;20134;-51
2023/10/03 14:08:11;;;;;;;0.10;0.10;;;;;;;;;;5130684;27;20043;-50
2023/10/03 14:10:44;;;;;;;0.10;0.10;;;;;;;;;;5131421;27;20392;-49
2023/10/03 14:13:10;;;;;;;0.20;0.20;;;;;;;;;;5130876;27;20079;-50
2023/10/03 14:15:37;;;;;;;0.10;0.10;;;;;;;;;;5130964;27;20039;-51
2023/10/03 14:18:03;;;;;;;0.10;0.10;;;;;;;;;;5130702;28;20615;-51
2023/10/03 14:20:29;;;;;;;0.10;0.10;;;;;;;;;;5130713;28;20051;-51
2023/10/03 14:22:57;;;;;;;0.20;0.20;;;;;;;;;;5130497;28;20051;-49
2023/10/03 14:25:23;;;;;;;0.10;0.10;;;;;;;;;;5130459;27;20062;-50
2023/10/03 14:27:49;;;;;;;0.10;0.10;;;;;;;;;;5129720;28;20043;-51
2023/10/03 14:30:15;;;;;;;0.10;0.10;;;;;;;;;;5130188;27;20075;-51
2023/10/03 14:32:41;;;;;;;0.10;0.10;;;;;;;;;;5130900;28;20061;-50
2023/10/03 14:35:07;;;;;;;0.20;0.20;;;;;;;;;;5130807;28;20414;-48
2023/10/03 14:37:35;;;;;;;0.10;0.10;;;;;;;;;;5130372;28;20515;-50
2023/10/03 14:40:00;;;;;;;0.10;0.10;;;;;;;;;;5131141;27;20091;-51
2023/10/03 14:42:26;;;;;;;0.10;0.10;;;;;;;;;;5130454;27;20043;-51
2023/10/03 14:44:51;;;;;;;0.10;0.10;;;;;;;;;;5130349;28;20046;-50
2023/10/03 14:47:18;;;;;;;0.40;0.38;;;;;;;;;;5130803;28;20050;-50
2023/10/03 14:49:44;;;;;;;0.10;0.10;;;;;;;;;;5130639;27;20074;-50
2023/10/03 14:52:09;;;;;;;0.20;0.20;;;;;;;;;;5130525;28;20062;-51